sensor_id;sensor_type;location;lat;lon;timestamp;pressure;altitude;pressure_sealevel;temperature;humidity
8049;BME280;20935;42.660;23.342;2023-01-01T00:01:18;96161.38;;;2.99;100.00
8049;BME280;20935;42.660;23.342;2023-01-01T00:03:48;96165.59;;;2.92;100.00
8049;BME280;20935;42.660;23.342;2023-01-01T00:06:13;96164.22;;;2.94;100.00
8049;BME280;20935;42.660;23.342;2023-01-01T00:08:39;96158.13;;;2.94;100.00
8049;BME280;20935;42.660;23.342;2023-01-01T00:11:07;96171.38;;;3.02;100.00
8049;BME280;20935;42.660;23.342;2023-01-01T00:13:37;96167.19;;;3.10;100.00
8049;BME280;20935;42.660;23.342;2023-01-01T00:16:09;96171.84;;;3.13;100.00
8049;BME280;20935;42.660;23.342;2023-01-01T00:18:35;96169.66;;;2.98;100.00
8049;BME280;20935;42.660;23.342;2023-01-01T00:21:05;96169.91;;;2.79;100.00
8049;BME280;20935;42.660;23.342;2023-01-01T00:23:33;96173.84;;;2.90;100.00
8049;BME280;20935;42.660;23.342;2023-01-01T00:25:59;96165.88;;;2.81;100.00
8049;BME280;20935;42.660;23.342;2023-01-01T00:28:25;96171.22;;;3.16;100.00
8049;BME280;20935;42.660;23.342;2023-01-01T00:30:56;96176.63;;;4.05;100.00
8049;BME280;20935;42.660;23.342;2023-01-01T00:33:24;96184.00;;;3.31;100.00
8049;BME280;20935;42.660;23.342;2023-01-01T00:35:49;96194.06;;;2.86;100.00
8049;BME280;20935;42.660;23.342;2023-01-01T00:38:15;96186.66;;;2.57;100.00
8049;BME280;20935;42.660;23.342;2023-01-01T00:40:40;96181.09;;;2.76;100.00
8049;BME280;20935;42.660;23.342;2023-01-01T00:43:11;96170.41;;;2.81;100.00
8049;BME280;20935;42.660;23.342;2023-01-01T00:45:36;96177.25;;;2.99;100.00
8049;BME280;20935;42.660;23.342;2023-01-01T00:48:02;96190.84;;;3.23;100.00
8049;BME280;20935;42.660;23.342;2023-01-01T00:50:27;96189.13;;;3.19;100.00
8049;BME280;20935;42.660;23.342;2023-01-01T00:52:53;96183.47;;;2.77;100.00
8049;BME280;20935;42.660;23.342;2023-01-01T00:55:19;96186.31;;;2.98;100.00
8049;BME280;20935;42.660;23.342;2023-01-01T00:57:44;96177.59;;;2.98;100.00
8049;BME280;20935;42.660;23.342;2023-01-01T01:00:10;96197.72;;;2.28;100.00
8049;BME280;20935;42.660;23.342;2023-01-01T01:02:41;96187.06;;;2.11;100.00
8049;BME280;20935;42.660;23.342;2023-01-01T01:05:07;96184.84;;;2.35;100.00
8049;BME280;20935;42.660;23.342;2023-01-01T01:07:37;96182.88;;;2.41;100.00
8049;BME280;20935;42.660;23.342;2023-01-01T01:10:03;96177.25;;;2.34;100.00
8049;BME280;20935;42.660;23.342;2023-01-01T01:12:32;96180.59;;;2.57;100.00
8049;BME280;20935;42.660;23.342;2023-01-01T01:15:03;96183.13;;;2.79;100.00
8049;BME280;20935;42.660;23.342;2023-01-01T01:17:29;96179.09;;;2.73;100.00
8049;BME280;20935;42.660;23.342;2023-01-01T01:19:57;96178.59;;;2.62;100.00
8049;BME280;20935;42.660;23.342;2023-01-01T01:22:23;96183.53;;;2.55;100.00
8049;BME280;20935;42.660;23.342;2023-01-01T01:24:51;96187.13;;;2.51;100.00
8049;BME280;20935;42.660;23.342;2023-01-01T01:27:19;96184.66;;;2.71;100.00
8049;BME280;20935;42.660;23.342;2023-01-01T01:29:44;96171.91;;;2.65;100.00
8049;BME280;20935;42.660;23.342;2023-01-01T01:32:11;96175.03;;;2.27;100.00
8049;BME280;20935;42.660;23.342;2023-01-01T01:34:37;96170.19;;;2.21;100.00
8049;BME280;20935;42.660;23.342;2023-01-01T01:37:03;96174.84;;;2.24;100.00
8049;BME280;20935;42.660;23.342;2023-01-01T01:39:29;96166.84;;;2.38;100.00
8049;BME280;20935;42.660;23.342;2023-01-01T01:41:55;96166.44;;;2.13;100.00
8049;BME280;20935;42.660;23.342;2023-01-01T01:47:17;96167.38;;;2.57;100.00
8049;BME280;20935;42.660;23.342;2023-01-01T01:49:45;96159.75;;;2.16;100.00
8049;BME280;20935;42.660;23.342;2023-01-01T01:52:11;96160.16;;;2.01;100.00
8049;BME280;20935;42.660;23.342;2023-01-01T01:54:37;96167.03;;;2.10;100.00
8049;BME280;20935;42.660;23.342;2023-01-01T01:57:08;96161.81;;;2.27;100.00
8049;BME280;20935;42.660;23.342;2023-01-01T01:59:38;96163.84;;;2.70;100.00
8049;BME280;20935;42.660;23.342;2023-01-01T02:02:11;96173.22;;;2.36;100.00
8049;BME280;20935;42.660;23.342;2023-01-01T02:04:41;96186.00;;;2.12;100.00
8049;BME280;20935;42.660;23.342;2023-01-01T02:07:07;96186.03;;;1.90;100.00
8049;BME280;20935;42.660;23.342;2023-01-01T02:09:35;96185.78;;;2.00;100.00
8049;BME280;20935;42.660;23.342;2023-01-01T02:12:03;96189.47;;;2.21;100.00
8049;BME280;20935;42.660;23.342;2023-01-01T02:14:31;96187.66;;;2.30;100.00
8049;BME280;20935;42.660;23.342;2023-01-01T02:17:22;96189.47;;;2.21;100.00
8049;BME280;20935;42.660;23.342;2023-01-01T02:20:24;96193.53;;;2.27;100.00
8049;BME280;20935;42.660;23.342;2023-01-01T02:28:14;96190.66;;;2.07;100.00
8049;BME280;20935;42.660;23.342;2023-01-01T02:30:46;96194.09;;;2.55;100.00
8049;BME280;20935;42.660;23.342;2023-01-01T02:33:16;96192.22;;;2.16;100.00
8049;BME280;20935;42.660;23.342;2023-01-01T02:36:03;96186.22;;;2.24;100.00
8049;BME280;20935;42.660;23.342;2023-01-01T02:38:34;96194.31;;;2.28;100.00
8049;BME280;20935;42.660;23.342;2023-01-01T02:41:08;96186.00;;;2.52;100.00
8049;BME280;20935;42.660;23.342;2023-01-01T02:43:36;96184.41;;;2.99;100.00
8049;BME280;20935;42.660;23.342;2023-01-01T02:46:06;96181.72;;;2.73;100.00
8049;BME280;20935;42.660;23.342;2023-01-01T02:48:46;96187.41;;;2.10;100.00
8049;BME280;20935;42.660;23.342;2023-01-01T02:56:46;96179.72;;;2.00;100.00
8049;BME280;20935;42.660;23.342;2023-01-01T02:59:30;96173.25;;;2.45;100.00
8049;BME280;20935;42.660;23.342;2023-01-01T03:02:36;96169.13;;;2.22;100.00
8049;BME280;20935;42.660;23.342;2023-01-01T03:10:52;96172.94;;;1.85;100.00
8049;BME280;20935;42.660;23.342;2023-01-01T03:13:32;96182.22;;;1.74;100.00
8049;BME280;20935;42.660;23.342;2023-01-01T03:18:44;96177.81;;;1.69;100.00
8049;BME280;20935;42.660;23.342;2023-01-01T03:21:15;96179.88;;;1.50;100.00
8049;BME280;20935;42.660;23.342;2023-01-01T03:23:46;96178.34;;;1.35;100.00
8049;BME280;20935;42.660;23.342;2023-01-01T03:26:17;96195.16;;;1.62;100.00
8049;BME280;20935;42.660;23.342;2023-01-01T03:28:55;96182.78;;;2.24;100.00
8049;BME280;20935;42.660;23.342;2023-01-01T03:31:24;96178.56;;;2.14;100.00
8049;BME280;20935;42.660;23.342;2023-01-01T03:34:09;96183.81;;;1.61;100.00
8049;BME280;20935;42.660;23.342;2023-01-01T03:36:41;96176.38;;;1.41;100.00
8049;BME280;20935;42.660;23.342;2023-01-01T03:41:49;96179.28;;;2.06;100.00
8049;BME280;20935;42.660;23.342;2023-01-01T03:44:22;96183.28;;;1.73;100.00
8049;BME280;20935;42.660;23.342;2023-01-01T03:46:52;96183.66;;;1.58;100.00
8049;BME280;20935;42.660;23.342;2023-01-01T03:49:18;96171.75;;;1.69;100.00
8049;BME280;20935;42.660;23.342;2023-01-01T03:51:59;96182.66;;;1.98;100.00
8049;BME280;20935;42.660;23.342;2023-01-01T03:59:41;96176.28;;;1.46;100.00
8049;BME280;20935;42.660;23.342;2023-01-01T04:02:10;96183.28;;;1.73;100.00
8049;BME280;20935;42.660;23.342;2023-01-01T04:04:38;96189.53;;;1.77;100.00
8049;BME280;20935;42.660;23.342;2023-01-01T04:07:03;96178.09;;;1.59;100.00
8049;BME280;20935;42.660;23.342;2023-01-01T04:09:30;96175.97;;;1.70;100.00
8049;BME280;20935;42.660;23.342;2023-01-01T04:11:58;96179.00;;;1.63;100.00
8049;BME280;20935;42.660;23.342;2023-01-01T04:14:39;96170.38;;;1.49;100.00
8049;BME280;20935;42.660;23.342;2023-01-01T04:17:09;96179.56;;;1.74;100.00
8049;BME280;20935;42.660;23.342;2023-01-01T04:19:37;96179.25;;;1.53;100.00
8049;BME280;20935;42.660;23.342;2023-01-01T04:22:03;96185.06;;;1.64;100.00
8049;BME280;20935;42.660;23.342;2023-01-01T04:24:29;96186.56;;;1.34;100.00
8049;BME280;20935;42.660;23.342;2023-01-01T04:26:55;96192.03;;;1.37;100.00
8049;BME280;20935;42.660;23.342;2023-01-01T04:29:23;96188.34;;;1.25;100.00
8049;BME280;20935;42.660;23.342;2023-01-01T04:31:52;96181.13;;;1.30;100.00
8049;BME280;20935;42.660;23.342;2023-01-01T04:34:17;96188.06;;;1.49;100.00
8049;BME280;20935;42.660;23.342;2023-01-01T04:36:43;96192.75;;;1.52;100.00
8049;BME280;20935;42.660;23.342;2023-01-01T04:39:12;96192.13;;;1.10;100.00
8049;BME280;20935;42.660;23.342;2023-01-01T04:41:40;96196.50;;;1.15;100.00
8049;BME280;20935;42.660;23.342;2023-01-01T04:44:05;96188.16;;;1.21;100.00
8049;BME280;20935;42.660;23.342;2023-01-01T04:46:30;96194.84;;;1.41;100.00
8049;BME280;20935;42.660;23.342;2023-01-01T04:48:56;96193.16;;;1.67;100.00
8049;BME280;20935;42.660;23.342;2023-01-01T04:51:22;96190.59;;;1.76;100.00
8049;BME280;20935;42.660;23.342;2023-01-01T04:53:52;96192.75;;;1.52;100.00
8049;BME280;20935;42.660;23.342;2023-01-01T04:56:21;96180.88;;;1.40;100.00
8049;BME280;20935;42.660;23.342;2023-01-01T04:58:50;96184.91;;;1.60;100.00
8049;BME280;20935;42.660;23.342;2023-01-01T05:01:20;96191.81;;;1.70;100.00
8049;BME280;20935;42.660;23.342;2023-01-01T05:03:48;96188.78;;;1.85;100.00
8049;BME280;20935;42.660;23.342;2023-01-01T05:06:14;96192.88;;;2.53;100.00
8049;BME280;20935;42.660;23.342;2023-01-01T05:08:45;96198.66;;;2.55;100.00
8049;BME280;20935;42.660;23.342;2023-01-01T05:11:17;96200.94;;;1.86;100.00
8049;BME280;20935;42.660;23.342;2023-01-01T05:13:47;96201.03;;;1.36;100.00
8049;BME280;20935;42.660;23.342;2023-01-01T05:16:16;96197.31;;;1.37;100.00
8049;BME280;20935;42.660;23.342;2023-01-01T05:18:42;96200.72;;;1.38;100.00
8049;BME280;20935;42.660;23.342;2023-01-01T05:21:12;96197.44;;;1.77;100.00
8049;BME280;20935;42.660;23.342;2023-01-01T05:23:39;96200.19;;;1.50;100.00
8049;BME280;20935;42.660;23.342;2023-01-01T05:28:35;96200.19;;;1.50;100.00
8049;BME280;20935;42.660;23.342;2023-01-01T05:31:06;96198.69;;;1.57;100.00
8049;BME280;20935;42.660;23.342;2023-01-01T05:33:32;96201.97;;;1.40;100.00
8049;BME280;20935;42.660;23.342;2023-01-01T05:35:57;96204.50;;;1.46;100.00
8049;BME280;20935;42.660;23.342;2023-01-01T05:38:23;96208.84;;;1.41;100.00
8049;BME280;20935;42.660;23.342;2023-01-01T05:40:48;96209.19;;;1.93;100.00
8049;BME280;20935;42.660;23.342;2023-01-01T05:43:18;96206.72;;;1.52;100.00
8049;BME280;20935;42.660;23.342;2023-01-01T05:45:46;96210.13;;;1.30;100.00
8049;BME280;20935;42.660;23.342;2023-01-01T05:48:12;96204.69;;;1.27;100.00
8049;BME280;20935;42.660;23.342;2023-01-01T05:50:38;96208.84;;;1.28;100.00
8049;BME280;20935;42.660;23.342;2023-01-01T05:53:06;96210.06;;;1.58;100.00
8049;BME280;20935;42.660;23.342;2023-01-01T05:55:31;96204.88;;;1.30;100.00
8049;BME280;20935;42.660;23.342;2023-01-01T05:57:57;96210.84;;;1.22;100.00
8049;BME280;20935;42.660;23.342;2023-01-01T06:00:23;96219.94;;;1.52;100.00
8049;BME280;20935;42.660;23.342;2023-01-01T06:02:50;96210.91;;;1.67;100.00
8049;BME280;20935;42.660;23.342;2023-01-01T06:05:18;96212.25;;;1.42;100.00
8049;BME280;20935;42.660;23.342;2023-01-01T06:07:46;96214.25;;;1.59;100.00
8049;BME280;20935;42.660;23.342;2023-01-01T06:10:12;96213.28;;;1.19;100.00
8049;BME280;20935;42.660;23.342;2023-01-01T06:12:40;96209.53;;;1.33;100.00
8049;BME280;20935;42.660;23.342;2023-01-01T06:15:06;96213.72;;;1.70;100.00
8049;BME280;20935;42.660;23.342;2023-01-01T06:17:34;96225.81;;;1.49;100.00
8049;BME280;20935;42.660;23.342;2023-01-01T06:19:59;96215.72;;;1.29;100.00
8049;BME280;20935;42.660;23.342;2023-01-01T06:22:27;96223.97;;;1.50;100.00
8049;BME280;20935;42.660;23.342;2023-01-01T06:24:53;96226.59;;;1.72;100.00
8049;BME280;20935;42.660;23.342;2023-01-01T06:27:21;96224.91;;;1.76;100.00
8049;BME280;20935;42.660;23.342;2023-01-01T06:29:46;96220.88;;;2.23;100.00
8049;BME280;20935;42.660;23.342;2023-01-01T06:32:14;96234.69;;;2.20;100.00
8049;BME280;20935;42.660;23.342;2023-01-01T06:34:43;96228.44;;;2.16;100.00
8049;BME280;20935;42.660;23.342;2023-01-01T06:37:09;96227.88;;;1.97;100.00
8049;BME280;20935;42.660;23.342;2023-01-01T06:39:34;96238.53;;;2.14;100.00
8049;BME280;20935;42.660;23.342;2023-01-01T06:42:02;96244.78;;;2.49;100.00
8049;BME280;20935;42.660;23.342;2023-01-01T06:44:28;96243.94;;;2.09;100.00
8049;BME280;20935;42.660;23.342;2023-01-01T06:46:55;96249.50;;;3.08;100.00
8049;BME280;20935;42.660;23.342;2023-01-01T06:49:23;96253.63;;;4.09;100.00
8049;BME280;20935;42.660;23.342;2023-01-01T06:51:49;96253.81;;;5.76;100.00
8049;BME280;20935;42.660;23.342;2023-01-01T06:54:14;96257.38;;;3.99;100.00
8049;BME280;20935;42.660;23.342;2023-01-01T06:56:42;96263.75;;;3.38;100.00
8049;BME280;20935;42.660;23.342;2023-01-01T06:59:08;96269.09;;;3.81;100.00
8049;BME280;20935;42.660;23.342;2023-01-01T07:01:35;96266.72;;;3.37;100.00
8049;BME280;20935;42.660;23.342;2023-01-01T07:04:09;96267.34;;;3.68;100.00
8049;BME280;20935;42.660;23.342;2023-01-01T07:06:35;96264.69;;;3.34;100.00
8049;BME280;20935;42.660;23.342;2023-01-01T07:09:01;96268.16;;;3.03;100.00
8049;BME280;20935;42.660;23.342;2023-01-01T07:11:31;96265.38;;;3.08;100.00
8049;BME280;20935;42.660;23.342;2023-01-01T07:14:02;96257.22;;;3.53;100.00
8049;BME280;20935;42.660;23.342;2023-01-01T07:16:28;96260.50;;;3.50;100.00
8049;BME280;20935;42.660;23.342;2023-01-01T07:18:54;96260.81;;;3.48;100.00
8049;BME280;20935;42.660;23.342;2023-01-01T07:21:26;96267.66;;;3.75;100.00
8049;BME280;20935;42.660;23.342;2023-01-01T07:23:54;96265.81;;;4.01;100.00
8049;BME280;20935;42.660;23.342;2023-01-01T07:26:27;96262.69;;;3.91;100.00
8049;BME280;20935;42.660;23.342;2023-01-01T07:28:53;96257.84;;;4.10;100.00
8049;BME280;20935;42.660;23.342;2023-01-01T07:31:20;96259.50;;;4.32;100.00
8049;BME280;20935;42.660;23.342;2023-01-01T07:33:47;96256.84;;;4.87;100.00
8049;BME280;20935;42.660;23.342;2023-01-01T07:36:13;96257.72;;;4.61;100.00
8049;BME280;20935;42.660;23.342;2023-01-01T07:38:39;96264.72;;;4.66;100.00
8049;BME280;20935;42.660;23.342;2023-01-01T07:41:10;96265.03;;;5.02;100.00
8049;BME280;20935;42.660;23.342;2023-01-01T07:43:35;96263.72;;;4.88;100.00
8049;BME280;20935;42.660;23.342;2023-01-01T07:46:01;96260.88;;;5.22;100.00
8049;BME280;20935;42.660;23.342;2023-01-01T07:48:28;96261.88;;;5.17;100.00
8049;BME280;20935;42.660;23.342;2023-01-01T07:50:56;96272.56;;;5.30;100.00
8049;BME280;20935;42.660;23.342;2023-01-01T07:53:27;96261.13;;;5.58;100.00
8049;BME280;20935;42.660;23.342;2023-01-01T07:55:53;96259.00;;;5.73;100.00
8049;BME280;20935;42.660;23.342;2023-01-01T07:58:23;96267.75;;;5.52;100.00
8049;BME280;20935;42.660;23.342;2023-01-01T08:00:50;96265.75;;;5.91;100.00
8049;BME280;20935;42.660;23.342;2023-01-01T08:03:18;96265.72;;;6.32;100.00
8049;BME280;20935;42.660;23.342;2023-01-01T08:05:47;96271.50;;;6.13;100.00
8049;BME280;20935;42.660;23.342;2023-01-01T08:08:15;96272.97;;;6.44;100.00
8049;BME280;20935;42.660;23.342;2023-01-01T08:10:43;96278.09;;;6.61;100.00
8049;BME280;20935;42.660;23.342;2023-01-01T08:13:14;96277.44;;;6.64;100.00
8049;BME280;20935;42.660;23.342;2023-01-01T08:15:42;96287.66;;;6.74;100.00
8049;BME280;20935;42.660;23.342;2023-01-01T08:18:10;96283.16;;;6.99;100.00
8049;BME280;20935;42.660;23.342;2023-01-01T08:20:39;96289.94;;;7.08;100.00
8049;BME280;20935;42.660;23.342;2023-01-01T08:23:07;96286.81;;;7.19;100.00
8049;BME280;20935;42.660;23.342;2023-01-01T08:25:35;96298.00;;;7.73;100.00
8049;BME280;20935;42.660;23.342;2023-01-01T08:28:04;96286.09;;;7.82;100.00
8049;BME280;20935;42.660;23.342;2023-01-01T08:30:31;96286.16;;;7.98;100.00
8049;BME280;20935;42.660;23.342;2023-01-01T08:32:56;96286.06;;;7.94;100.00
8049;BME280;20935;42.660;23.342;2023-01-01T08:35:22;96285.97;;;8.31;100.00
8049;BME280;20935;42.660;23.342;2023-01-01T08:37:50;96285.47;;;8.41;100.00
8049;BME280;20935;42.660;23.342;2023-01-01T08:40:19;96282.53;;;8.30;100.00
8049;BME280;20935;42.660;23.342;2023-01-01T08:42:47;96293.22;;;7.78;100.00
8049;BME280;20935;42.660;23.342;2023-01-01T08:45:16;96286.00;;;8.19;100.00
8049;BME280;20935;42.660;23.342;2023-01-01T08:47:42;96295.78;;;7.75;100.00
8049;BME280;20935;42.660;23.342;2023-01-01T08:50:08;96297.59;;;7.59;100.00
8049;BME280;20935;42.660;23.342;2023-01-01T08:52:37;96290.47;;;8.15;100.00
8049;BME280;20935;42.660;23.342;2023-01-01T08:55:02;96279.56;;;8.20;100.00
8049;BME280;20935;42.660;23.342;2023-01-01T08:57:29;96284.31;;;8.54;100.00
8049;BME280;20935;42.660;23.342;2023-01-01T08:59:59;96283.75;;;8.21;100.00
8049;BME280;20935;42.660;23.342;2023-01-01T09:02:25;96279.97;;;7.82;100.00
8049;BME280;20935;42.660;23.342;2023-01-01T09:04:56;96275.72;;;7.93;100.00
8049;BME280;20935;42.660;23.342;2023-01-01T09:07:21;96278.78;;;7.79;100.00
8049;BME280;20935;42.660;23.342;2023-01-01T09:09:49;96275.09;;;8.24;100.00
8049;BME280;20935;42.660;23.342;2023-01-01T09:12:17;96272.97;;;7.89;100.00
8049;BME280;20935;42.660;23.342;2023-01-01T09:14:49;96270.38;;;7.41;100.00
8049;BME280;20935;42.660;23.342;2023-01-01T09:17:15;96264.44;;;7.84;100.00
8049;BME280;20935;42.660;23.342;2023-01-01T09:19:46;96262.38;;;7.93;100.00
8049;BME280;20935;42.660;23.342;2023-01-01T09:22:17;96256.72;;;8.34;100.00
8049;BME280;20935;42.660;23.342;2023-01-01T09:24:43;96255.91;;;8.77;100.00
8049;BME280;20935;42.660;23.342;2023-01-01T09:27:11;96253.31;;;9.28;95.49
8049;BME280;20935;42.660;23.342;2023-01-01T09:29:41;96247.41;;;8.72;97.10
8049;BME280;20935;42.660;23.342;2023-01-01T09:32:11;96245.38;;;8.69;98.75
8049;BME280;20935;42.660;23.342;2023-01-01T09:34:38;96239.38;;;8.72;97.55
8049;BME280;20935;42.660;23.342;2023-01-01T09:37:07;96237.03;;;9.02;96.75
8049;BME280;20935;42.660;23.342;2023-01-01T09:39:35;96245.47;;;8.57;96.45
8049;BME280;20935;42.660;23.342;2023-01-01T09:47:45;96241.75;;;8.61;98.08
8049;BME280;20935;42.660;23.342;2023-01-01T09:50:38;96234.63;;;8.81;95.15
8049;BME280;20935;42.660;23.342;2023-01-01T09:53:39;96228.50;;;8.96;94.60
8049;BME280;20935;42.660;23.342;2023-01-01T09:56:14;96228.16;;;8.82;96.66
8049;BME280;20935;42.660;23.342;2023-01-01T09:58:45;96226.84;;;9.23;94.59
8049;BME280;20935;42.660;23.342;2023-01-01T10:01:22;96228.66;;;9.34;94.06
8049;BME280;20935;42.660;23.342;2023-01-01T10:10:03;96223.75;;;9.21;94.82
8049;BME280;20935;42.660;23.342;2023-01-01T10:15:24;96219.34;;;9.82;92.50
8049;BME280;20935;42.660;23.342;2023-01-01T10:17:56;96221.50;;;9.58;92.06
8049;BME280;20935;42.660;23.342;2023-01-01T10:20:45;96219.28;;;8.93;95.38
8049;BME280;20935;42.660;23.342;2023-01-01T10:23:24;96215.38;;;9.57;95.18
8049;BME280;20935;42.660;23.342;2023-01-01T10:25:55;96220.22;;;9.52;92.58
8049;BME280;20935;42.660;23.342;2023-01-01T10:28:32;96222.22;;;9.55;94.28
8049;BME280;20935;42.660;23.342;2023-01-01T10:31:19;96211.25;;;9.98;91.83
8049;BME280;20935;42.660;23.342;2023-01-01T10:33:49;96202.72;;;9.54;93.18
8049;BME280;20935;42.660;23.342;2023-01-01T10:36:17;96201.44;;;9.48;96.07
8049;BME280;20935;42.660;23.342;2023-01-01T10:38:45;96201.19;;;9.37;95.99
8049;BME280;20935;42.660;23.342;2023-01-01T10:41:12;96189.81;;;9.60;96.00
8049;BME280;20935;42.660;23.342;2023-01-01T10:43:40;96183.91;;;9.51;95.54
8049;BME280;20935;42.660;23.342;2023-01-01T10:46:11;96178.94;;;9.68;94.68
8049;BME280;20935;42.660;23.342;2023-01-01T10:48:37;96179.44;;;9.55;96.55
8049;BME280;20935;42.660;23.342;2023-01-01T10:51:13;96179.22;;;9.28;97.66
8049;BME280;20935;42.660;23.342;2023-01-01T10:53:50;96170.28;;;9.75;96.01
8049;BME280;20935;42.660;23.342;2023-01-01T10:56:19;96168.13;;;10.03;93.67
8049;BME280;20935;42.660;23.342;2023-01-01T10:58:56;96164.22;;;9.97;94.67
8049;BME280;20935;42.660;23.342;2023-01-01T11:01:30;96160.34;;;9.95;94.13
8049;BME280;20935;42.660;23.342;2023-01-01T11:06:43;96151.91;;;9.73;95.95
8049;BME280;20935;42.660;23.342;2023-01-01T11:11:47;96143.72;;;9.85;95.85
8049;BME280;20935;42.660;23.342;2023-01-01T11:14:24;96143.03;;;10.11;95.47
8049;BME280;20935;42.660;23.342;2023-01-01T11:16:52;96144.47;;;10.05;95.21
8049;BME280;20935;42.660;23.342;2023-01-01T11:19:36;96140.47;;;10.60;91.61
8049;BME280;20935;42.660;23.342;2023-01-01T11:22:09;96138.44;;;10.76;90.41
8049;BME280;20935;42.660;23.342;2023-01-01T11:25:03;96136.91;;;10.53;92.14
8049;BME280;20935;42.660;23.342;2023-01-01T11:27:30;96140.25;;;10.69;91.43
8049;BME280;20935;42.660;23.342;2023-01-01T11:32:47;96121.38;;;10.39;91.75
8049;BME280;20935;42.660;23.342;2023-01-01T11:35:20;96127.63;;;10.69;91.72
8049;BME280;20935;42.660;23.342;2023-01-01T11:37:51;96121.81;;;10.90;90.39
8049;BME280;20935;42.660;23.342;2023-01-01T11:40:44;96119.38;;;11.08;89.17
8049;BME280;20935;42.660;23.342;2023-01-01T11:47:40;96105.00;;;11.23;87.48
8049;BME280;20935;42.660;23.342;2023-01-01T11:52:44;96102.69;;;11.51;85.37
8049;BME280;20935;42.660;23.342;2023-01-01T12:00:53;96101.03;;;12.06;83.47
8049;BME280;20935;42.660;23.342;2023-01-01T12:03:43;96101.72;;;12.00;83.35
8049;BME280;20935;42.660;23.342;2023-01-01T12:06:27;96104.31;;;11.89;82.54
8049;BME280;20935;42.660;23.342;2023-01-01T12:11:43;96099.53;;;12.09;82.01
8049;BME280;20935;42.660;23.342;2023-01-01T12:18:02;96085.72;;;12.54;79.40
8049;BME280;20935;42.660;23.342;2023-01-01T12:21:02;96083.44;;;12.56;78.63
8049;BME280;20935;42.660;23.342;2023-01-01T12:23:28;96090.25;;;12.43;79.05
8049;BME280;20935;42.660;23.342;2023-01-01T12:32:13;96076.25;;;12.23;78.49
8049;BME280;20935;42.660;23.342;2023-01-01T12:35:05;96071.41;;;12.40;79.07
8049;BME280;20935;42.660;23.342;2023-01-01T12:37:53;96074.28;;;12.64;77.63
8049;BME280;20935;42.660;23.342;2023-01-01T12:43:07;96082.06;;;12.77;76.20
8049;BME280;20935;42.660;23.342;2023-01-01T12:51:03;96080.34;;;12.54;76.75
8049;BME280;20935;42.660;23.342;2023-01-01T12:56:26;96077.75;;;12.65;76.24
8049;BME280;20935;42.660;23.342;2023-01-01T12:59:11;96088.47;;;12.61;75.95
8049;BME280;20935;42.660;23.342;2023-01-01T13:01:38;96077.25;;;12.49;76.52
8049;BME280;20935;42.660;23.342;2023-01-01T13:04:20;96076.47;;;12.48;76.88
8049;BME280;20935;42.660;23.342;2023-01-01T13:06:51;96077.81;;;12.76;76.26
8049;BME280;20935;42.660;23.342;2023-01-01T13:09:22;96074.63;;;12.59;75.72
8049;BME280;20935;42.660;23.342;2023-01-01T13:12:19;96072.75;;;12.19;78.66
8049;BME280;20935;42.660;23.342;2023-01-01T13:14:47;96066.31;;;12.28;78.35
8049;BME280;20935;42.660;23.342;2023-01-01T13:17:24;96077.25;;;12.49;77.56
8049;BME280;20935;42.660;23.342;2023-01-01T13:20:19;96072.28;;;12.54;76.97
8049;BME280;20935;42.660;23.342;2023-01-01T13:22:47;96071.47;;;12.47;77.12
8049;BME280;20935;42.660;23.342;2023-01-01T13:38:54;96061.72;;;11.88;82.24
8049;BME280;20935;42.660;23.342;2023-01-01T13:43:53;96057.97;;;11.96;82.02
8049;BME280;20935;42.660;23.342;2023-01-01T14:00:15;96057.97;;;11.96;82.22
8049;BME280;20935;42.660;23.342;2023-01-01T14:02:47;96069.00;;;11.87;83.29
8049;BME280;20935;42.660;23.342;2023-01-01T14:07:49;96068.38;;;11.67;84.87
8049;BME280;20935;42.660;23.342;2023-01-01T14:10:22;96071.81;;;11.64;85.00
8049;BME280;20935;42.660;23.342;2023-01-01T14:12:51;96068.63;;;11.55;86.10
8049;BME280;20935;42.660;23.342;2023-01-01T14:15:32;96071.94;;;11.42;86.58
8049;BME280;20935;42.660;23.342;2023-01-01T14:18:04;96074.72;;;11.52;86.91
8049;BME280;20935;42.660;23.342;2023-01-01T14:20:41;96072.47;;;11.54;86.38
8049;BME280;20935;42.660;23.342;2023-01-01T14:25:55;96061.41;;;11.26;88.46
8049;BME280;20935;42.660;23.342;2023-01-01T14:28:26;96065.09;;;11.14;89.89
8049;BME280;20935;42.660;23.342;2023-01-01T14:30:56;96062.34;;;11.11;90.98
8049;BME280;20935;42.660;23.342;2023-01-01T14:33:33;96063.88;;;11.12;91.61
8049;BME280;20935;42.660;23.342;2023-01-01T14:36:01;96066.34;;;10.94;92.98
8049;BME280;20935;42.660;23.342;2023-01-01T14:38:34;96067.53;;;10.97;93.40
8049;BME280;20935;42.660;23.342;2023-01-01T14:41:34;96067.00;;;10.88;94.37
8049;BME280;20935;42.660;23.342;2023-01-01T14:44:08;96072.19;;;10.73;94.37
8049;BME280;20935;42.660;23.342;2023-01-01T14:46:39;96074.03;;;10.69;96.58
8049;BME280;20935;42.660;23.342;2023-01-01T14:49:12;96071.81;;;10.75;94.46
8049;BME280;20935;42.660;23.342;2023-01-01T14:51:44;96082.59;;;10.78;93.97
8049;BME280;20935;42.660;23.342;2023-01-01T14:54:18;96076.19;;;10.60;94.94
8049;BME280;20935;42.660;23.342;2023-01-01T14:56:48;96082.81;;;10.66;95.04
8049;BME280;20935;42.660;23.342;2023-01-01T14:59:25;96075.88;;;10.65;94.33
8049;BME280;20935;42.660;23.342;2023-01-01T15:02:15;96084.97;;;10.34;96.44
8049;BME280;20935;42.660;23.342;2023-01-01T15:04:41;96084.53;;;9.68;100.00
8049;BME280;20935;42.660;23.342;2023-01-01T15:09:49;96084.63;;;9.33;100.00
8049;BME280;20935;42.660;23.342;2023-01-01T15:12:17;96084.63;;;9.33;100.00
8049;BME280;20935;42.660;23.342;2023-01-01T15:14:44;96081.66;;;9.19;100.00
8049;BME280;20935;42.660;23.342;2023-01-01T15:17:16;96085.72;;;9.13;100.00
8049;BME280;20935;42.660;23.342;2023-01-01T15:19:45;96086.09;;;9.11;100.00
8049;BME280;20935;42.660;23.342;2023-01-01T15:22:29;96076.88;;;9.09;100.00
8049;BME280;20935;42.660;23.342;2023-01-01T15:24:56;96076.00;;;8.85;100.00
8049;BME280;20935;42.660;23.342;2023-01-01T15:27:33;96073.25;;;8.82;100.00
8049;BME280;20935;42.660;23.342;2023-01-01T15:30:03;96069.53;;;8.86;100.00